Time;durP1;ratioP1;P1;durP2;ratioP2;P2;SDS_P1;SDS_P2;PMS_P1;PMS_P2;Temp;Humidity;BMP_temperature;BMP_pressure;BME280_temperature;BME280_humidity;BME280_pressure;Samples;Min_cycle;Max_cycle;Signal;HPM_P1;HPM_P2
2024/01/17 00:02:29;;;;;;;1999.90;999.90;;;;;;;-1.67;100.00;100148.88;10333891;28;20076;-66
2024/01/17 00:07:32;;;;;;;1999.90;999.90;;;;;;;-1.60;100.00;100137.63;10334880;28;20050;-66
2024/01/17 00:12:34;;;;;;;1999.90;999.90;;;;;;;-1.69;100.00;100131.78;10334728;28;20057;-66
2024/01/17 00:17:37;;;;;;;1999.90;999.90;;;;;;;-1.81;100.00;100121.72;10317354;28;20054;-66
2024/01/17 00:22:39;;;;;;;1999.90;999.90;;;;;;;-1.82;100.00;100108.94;10334436;28;20057;-66
2024/01/17 00:27:42;;;;;;;1999.90;999.90;;;;;;;-1.71;100.00;100107.03;10334366;28;20050;-66
2024/01/17 00:32:44;;;;;;;1999.90;999.90;;;;;;;-1.88;100.00;100104.75;10333074;28;20042;-66
2024/01/17 00:37:47;;;;;;;1999.90;999.90;;;;;;;-1.70;100.00;100093.28;10334198;28;20129;-66
2024/01/17 00:42:49;;;;;;;1999.90;999.90;;;;;;;-1.61;99.67;100074.34;10334060;28;20047;-66
2024/01/17 00:47:52;;;;;;;1999.90;999.90;;;;;;;-1.97;100.00;100064.69;10333993;28;20055;-66
2024/01/17 00:52:54;;;;;;;1999.90;999.90;;;;;;;-1.86;100.00;100064.50;10333683;28;20055;-66
2024/01/17 00:57:56;;;;;;;1999.90;999.90;;;;;;;-1.89;99.94;100060.25;10333809;28;20060;-65
2024/01/17 01:02:59;;;;;;;1999.90;999.90;;;;;;;-2.05;100.00;100066.56;10332506;28;20055;-65
2024/01/17 01:08:01;;;;;;;1999.90;999.90;;;;;;;-2.26;100.00;100055.78;10333585;28;20125;-65
2024/01/17 01:13:04;;;;;;;1999.90;999.90;;;;;;;-2.55;100.00;100040.88;10332877;28;20043;-65
2024/01/17 01:18:06;;;;;;;1999.90;999.90;;;;;;;-2.36;100.00;100022.63;10339640;28;20405;-65
2024/01/17 01:23:09;;;;;;;1999.90;999.90;;;;;;;-2.53;100.00;100012.66;10340840;28;20089;-65
2024/01/17 01:28:11;;;;;;;1999.90;999.90;;;;;;;-2.49;100.00;100007.47;10322752;28;20390;-65
2024/01/17 01:33:14;;;;;;;1999.90;999.90;;;;;;;-2.47;100.00;100008.28;10339925;28;20050;-65
2024/01/17 01:38:16;;;;;;;1999.90;999.90;;;;;;;-2.38;100.00;100009.84;10340393;28;20052;-65
2024/01/17 01:43:23;;;;;;;1999.90;999.90;;;;;;;-2.74;100.00;99998.44;10322863;28;20046;-65
2024/01/17 01:48:25;;;;;;;1999.90;999.90;;;;;;;-2.59;100.00;99994.81;10338857;28;20046;-65
2024/01/17 01:53:30;;;;;;;1999.90;999.90;;;;;;;-2.66;100.00;99984.63;10338508;28;20051;-65
2024/01/17 01:58:34;;;;;;;1999.90;999.90;;;;;;;-2.59;100.00;99982.81;10339536;28;20084;-65
2024/01/17 02:03:37;;;;;;;1999.90;999.90;;;;;;;-2.43;100.00;99980.88;10338303;28;20050;-65
2024/01/17 02:08:40;;;;;;;1999.90;999.90;;;;;;;-2.70;100.00;99971.91;10338109;28;20104;-65
2024/01/17 02:13:43;;;;;;;1999.90;999.90;;;;;;;-2.69;100.00;99960.78;10337294;28;20584;-65
2024/01/17 02:18:47;;;;;;;1999.90;999.90;;;;;;;-2.40;100.00;99952.63;10337644;28;20134;-65
2024/01/17 02:23:51;;;;;;;1999.90;999.90;;;;;;;-2.36;99.91;99946.56;10337981;28;20085;-65
2024/01/17 02:28:53;;;;;;;1999.90;999.90;;;;;;;-2.32;99.36;99931.94;10336332;28;20486;-65
2024/01/17 02:33:55;;;;;;;1999.90;999.90;;;;;;;-2.83;100.00;99925.16;10337157;28;20061;-65
2024/01/17 02:38:58;;;;;;;1999.90;999.90;;;;;;;-2.68;100.00;99912.06;10336849;28;20061;-65
2024/01/17 02:44:00;;;;;;;1999.90;999.90;;;;;;;-2.29;100.00;99901.13;10337839;28;20054;-65
2024/01/17 02:49:03;;;;;;;1999.90;999.90;;;;;;;-2.68;100.00;99898.44;10337032;28;20500;-65
2024/01/17 02:54:05;;;;;;;1999.90;999.90;;;;;;;-2.75;100.00;99891.72;10337442;28;20062;-65
2024/01/17 02:59:08;;;;;;;1999.90;999.90;;;;;;;-2.62;100.00;99877.81;10352742;28;20046;-65
2024/01/17 03:04:10;;;;;;;1999.90;999.90;;;;;;;-2.75;100.00;99873.78;10337046;28;20058;-65
2024/01/17 03:09:13;;;;;;;1999.90;999.90;;;;;;;-2.58;100.00;99866.63;10336820;28;20050;-65
2024/01/17 03:14:15;;;;;;;1999.90;999.90;;;;;;;-2.82;100.00;99863.63;10334862;28;20453;-65
2024/01/17 03:19:17;;;;;;;1999.90;999.90;;;;;;;-2.51;100.00;99849.41;10335244;28;20042;-65
2024/01/17 03:24:20;;;;;;;1999.90;999.90;;;;;;;-2.51;99.63;99839.16;10319230;28;20054;-65
2024/01/17 03:29:22;;;;;;;1999.90;999.90;;;;;;;-2.30;100.00;99825.94;10334940;28;20051;-65
2024/01/17 03:34:25;;;;;;;1999.90;999.90;;;;;;;-2.72;100.00;99823.31;10335781;28;20054;-65
2024/01/17 03:39:27;;;;;;;1999.90;999.90;;;;;;;-2.60;100.00;99812.00;10335030;28;20046;-65
2024/01/17 03:44:30;;;;;;;1999.90;999.90;;;;;;;-2.86;100.00;99807.34;10335591;28;20055;-65
2024/01/17 03:49:32;;;;;;;1999.90;999.90;;;;;;;-2.78;100.00;99795.25;10334755;28;20077;-65
2024/01/17 03:54:37;;;;;;;1999.90;999.90;;;;;;;-3.22;100.00;99790.03;10334779;28;20093;-65
2024/01/17 03:59:44;;;;;;;1999.90;999.90;;;;;;;-3.02;100.00;99776.91;10334007;28;20042;-65
2024/01/17 04:04:47;;;;;;;1999.90;999.90;;;;;;;-2.96;100.00;99758.00;10334555;28;20457;-65
2024/01/17 04:09:49;;;;;;;1999.90;999.90;;;;;;;-3.05;100.00;99743.66;10334801;28;20125;-65
2024/01/17 04:14:52;;;;;;;1999.90;999.90;;;;;;;-2.99;100.00;99728.19;10334668;28;20057;-65
2024/01/17 04:19:54;;;;;;;1999.90;999.90;;;;;;;-3.30;100.00;99719.38;10333333;28;20078;-65
2024/01/17 04:24:56;;;;;;;1999.90;999.90;;;;;;;-3.09;100.00;99715.56;10334925;28;20058;-65
2024/01/17 04:29:59;;;;;;;1999.90;999.90;;;;;;;-3.03;100.00;99711.16;10333723;28;20554;-65
2024/01/17 04:35:02;;;;;;;1999.90;999.90;;;;;;;-2.85;100.00;99697.16;10334229;28;20078;-65
2024/01/17 04:40:06;;;;;;;1999.90;999.90;;;;;;;-2.99;100.00;99681.25;10333423;28;20050;-65
2024/01/17 04:45:09;;;;;;;1999.90;999.90;;;;;;;-3.29;100.00;99668.16;10334094;28;20134;-65
2024/01/17 04:50:12;;;;;;;1999.90;999.90;;;;;;;-3.08;100.00;99656.63;10336397;28;20421;-65
2024/01/17 04:55:15;;;;;;;1999.90;999.90;;;;;;;-3.07;100.00;99642.13;10341828;28;20058;-65
2024/01/17 05:00:18;;;;;;;1999.90;999.90;;;;;;;-3.17;100.00;99637.19;10340617;28;20050;-65
2024/01/17 05:05:21;;;;;;;1999.90;999.90;;;;;;;-3.22;100.00;99633.03;10342154;28;20134;-65
2024/01/17 05:10:24;;;;;;;1999.90;999.90;;;;;;;-3.19;100.00;99620.19;10324255;28;20054;-65
2024/01/17 05:15:26;;;;;;;1999.90;999.90;;;;;;;-3.14;100.00;99610.69;10340880;28;20156;-65
2024/01/17 05:20:28;;;;;;;1999.90;999.90;;;;;;;-3.28;100.00;99613.50;10341047;28;20078;-65
2024/01/17 05:25:31;;;;;;;1999.90;999.90;;;;;;;-3.13;100.00;99603.84;10340328;28;20137;-65
2024/01/17 05:30:34;;;;;;;1999.90;999.90;;;;;;;-3.15;100.00;99577.44;10339630;28;20129;-64
2024/01/17 05:35:36;;;;;;;1999.90;999.90;;;;;;;-3.01;100.00;99573.72;10340541;28;20089;-65
2024/01/17 05:40:39;;;;;;;1999.90;999.90;;;;;;;-2.95;100.00;99569.34;10340272;28;20050;-64
2024/01/17 05:45:42;;;;;;;1999.90;999.90;;;;;;;-3.04;100.00;99566.09;10338480;28;20133;-64
2024/01/17 05:50:45;;;;;;;1999.90;999.90;;;;;;;-3.17;100.00;99550.13;10339977;28;20051;-65
2024/01/17 05:55:47;;;;;;;1999.90;999.90;;;;;;;-3.06;100.00;99538.81;10339132;28;20133;-65
2024/01/17 06:00:50;;;;;;;1999.90;999.90;;;;;;;-3.08;100.00;99531.16;10338145;28;20056;-64
2024/01/17 06:05:53;;;;;;;1999.90;999.90;;;;;;;-3.20;100.00;99519.47;10339342;28;20058;-64
2024/01/17 06:10:56;;;;;;;1999.90;999.90;;;;;;;-3.29;100.00;99514.56;10339712;28;20080;-64
2024/01/17 06:15:58;;;;;;;1999.90;999.90;;;;;;;-3.28;100.00;99498.31;10338375;28;20485;-64
2024/01/17 06:21:00;;;;;;;1999.90;999.90;;;;;;;-3.37;100.00;99501.09;10338762;28;20129;-64
2024/01/17 06:26:03;;;;;;;1999.90;999.90;;;;;;;-3.37;100.00;99496.78;10337994;28;20054;-64
2024/01/17 06:31:08;;;;;;;1999.90;999.90;;;;;;;-3.46;100.00;99481.66;10338477;28;20050;-64
2024/01/17 06:36:10;;;;;;;1999.90;999.90;;;;;;;-3.25;100.00;99475.22;10337023;28;20054;-65
2024/01/17 06:41:12;;;;;;;1999.90;999.90;;;;;;;-3.22;100.00;99472.59;10337965;28;20062;-65
2024/01/17 06:46:15;;;;;;;1999.90;999.90;;;;;;;-3.32;100.00;99467.72;10336608;28;20081;-64
2024/01/17 06:51:17;;;;;;;1999.90;999.90;;;;;;;-3.27;100.00;99466.72;10337579;28;20053;-65
2024/01/17 06:56:19;;;;;;;1999.90;999.90;;;;;;;-3.38;100.00;99472.09;10337012;28;20480;-65
2024/01/17 07:01:22;;;;;;;1999.90;999.90;;;;;;;-3.22;100.00;99457.22;10336538;28;20482;-65
2024/01/17 07:06:24;;;;;;;1999.90;999.90;;;;;;;-3.30;100.00;99448.88;10336427;28;20050;-65
2024/01/17 07:11:27;;;;;;;1999.90;999.90;;;;;;;-3.22;100.00;99443.59;10336093;28;20046;-65
2024/01/17 07:16:29;;;;;;;1999.90;999.90;;;;;;;-3.45;100.00;99433.84;10335894;28;20413;-64
2024/01/17 07:21:32;;;;;;;1999.90;999.90;;;;;;;-3.42;100.00;99419.28;10336435;28;20050;-64
2024/01/17 07:26:34;;;;;;;1999.90;999.90;;;;;;;-3.40;100.00;99417.50;10335614;28;20060;-65
2024/01/17 07:31:37;;;;;;;1999.90;999.90;;;;;;;-3.26;100.00;99407.00;10336580;28;20047;-65
2024/01/17 07:36:40;;;;;;;1999.90;999.90;;;;;;;-3.45;100.00;99398.03;10335909;28;20050;-65
2024/01/17 07:41:42;;;;;;;1999.90;999.90;;;;;;;-3.36;100.00;99397.84;10335629;28;20046;-65
2024/01/17 07:46:47;;;;;;;1999.90;999.90;;;;;;;-3.33;100.00;99402.88;10335645;28;20078;-65
2024/01/17 07:51:49;;;;;;;1999.90;999.90;;;;;;;-3.22;100.00;99375.31;10334721;28;20490;-65
2024/01/17 07:56:52;;;;;;;1999.90;999.90;;;;;;;-2.89;100.00;99371.94;10333789;28;20058;-65
2024/01/17 08:01:55;;;;;;;1999.90;999.90;;;;;;;-3.32;100.00;99368.72;10335008;28;20093;-64
2024/01/17 08:06:57;;;;;;;1999.90;999.90;;;;;;;-3.09;100.00;99354.53;10333747;28;20061;-65
2024/01/17 08:11:59;;;;;;;1999.90;999.90;;;;;;;-3.11;100.00;99338.34;10334862;28;20078;-65
2024/01/17 08:17:02;;;;;;;1999.90;999.90;;;;;;;-2.99;100.00;99327.81;10333526;28;20060;-65
2024/01/17 08:22:05;;;;;;;1999.90;999.90;;;;;;;-2.92;100.00;99326.78;10333882;28;20473;-65
2024/01/17 08:27:07;;;;;;;1999.90;999.90;;;;;;;-2.97;100.00;99320.09;10315874;28;20133;-65
2024/01/17 08:32:10;;;;;;;1999.90;999.90;;;;;;;-3.12;100.00;99309.38;10316890;28;20083;-65
2024/01/17 08:37:12;;;;;;;1999.90;999.90;;;;;;;-2.92;100.00;99302.91;10331992;28;20054;-65
2024/01/17 08:42:15;;;;;;;1999.90;999.90;;;;;;;-3.05;100.00;99292.97;10332922;28;20061;-65
2024/01/17 08:47:17;;;;;;;1999.90;999.90;;;;;;;-2.86;100.00;99292.47;10333418;28;20548;-65
2024/01/17 08:52:20;;;;;;;1999.90;999.90;;;;;;;-2.70;100.00;99288.63;10333767;28;20046;-65
2024/01/17 08:57:22;;;;;;;1999.90;999.90;;;;;;;-2.90;99.36;99272.97;10335745;28;20049;-65
2024/01/17 09:02:25;;;;;;;1999.90;999.90;;;;;;;-2.75;100.00;99266.59;10358311;28;20050;-66
2024/01/17 09:07:27;;;;;;;1999.90;999.90;;;;;;;-2.61;100.00;99269.59;10326271;28;20054;-65
2024/01/17 09:12:34;;;;;;;1999.90;999.90;;;;;;;-2.43;98.84;99250.28;10286993;28;20050;-65
2024/01/17 09:17:37;;;;;;;1999.90;999.90;;;;;;;-2.49;98.52;99243.63;10298538;28;20062;-64
2024/01/17 09:22:40;;;;;;;1999.90;999.90;;;;;;;-2.19;98.10;99223.09;10314033;28;20138;-65
2024/01/17 09:27:42;;;;;;;1999.90;999.90;;;;;;;-2.12;97.71;99219.47;10311392;28;20065;-65
2024/01/17 09:32:47;;;;;;;1999.90;999.90;;;;;;;-1.99;97.91;99217.34;10324003;28;20129;-65
2024/01/17 09:37:50;;;;;;;1999.90;999.90;;;;;;;-2.34;95.72;99213.28;10324687;28;20057;-65
2024/01/17 09:42:53;;;;;;;1999.90;999.90;;;;;;;-1.87;96.42;99193.88;10312412;28;20049;-65
2024/01/17 09:48:12;;;;;;;1999.90;999.90;;;;;;;-1.92;96.36;99205.16;10306279;28;20088;-71
2024/01/17 09:53:17;;;;;;;1999.90;999.90;;;;;;;-1.80;95.17;99204.78;10319138;28;20449;-71
2024/01/17 09:58:19;;;;;;;1999.90;999.90;;;;;;;-1.43;94.07;99195.88;10336749;28;20401;-73
2024/01/17 10:03:23;;;;;;;1999.90;999.90;;;;;;;-1.62;92.53;99200.78;10321937;28;20077;-72
2024/01/17 10:08:27;;;;;;;1999.90;999.90;;;;;;;-1.41;92.49;99196.66;10355226;23;20046;-67
2024/01/17 10:13:29;;;;;;;1999.90;999.90;;;;;;;-1.53;91.67;99186.78;10362384;28;20052;-67
2024/01/17 10:18:32;;;;;;;1999.90;999.90;;;;;;;-1.27;91.66;99185.09;10378838;28;20564;-67
2024/01/17 10:23:38;;;;;;;1999.90;999.90;;;;;;;-1.35;90.92;99182.75;10378150;28;20046;-67
2024/01/17 10:28:41;;;;;;;1999.90;999.90;;;;;;;-1.21;90.63;99156.59;10379223;28;20104;-67
2024/01/17 10:33:43;;;;;;;1999.90;999.90;;;;;;;-1.22;90.64;99152.38;10377824;28;20125;-67
2024/01/17 10:38:46;;;;;;;1999.90;999.90;;;;;;;-0.79;90.09;99145.66;10376969;28;20412;-67
2024/01/17 10:43:53;;;;;;;1999.90;999.90;;;;;;;-0.94;88.94;99136.81;10377339;28;20050;-67
2024/01/17 10:48:58;;;;;;;1999.90;999.90;;;;;;;-0.88;90.16;99118.56;10377381;28;20065;-67
2024/01/17 10:54:01;;;;;;;1999.90;999.90;;;;;;;-0.90;88.28;99109.28;10377020;28;20041;-67
2024/01/17 10:59:05;;;;;;;1999.90;999.90;;;;;;;-0.70;88.71;99111.09;10377287;28;20053;-67
2024/01/17 11:04:20;;;;;;;1999.90;999.90;;;;;;;-0.77;88.48;99089.94;10375926;28;20544;-67
2024/01/17 11:09:24;;;;;;;1999.90;999.90;;;;;;;-0.39;88.49;99085.88;10376064;28;20498;-67
2024/01/17 11:14:30;;;;;;;1999.90;999.90;;;;;;;-0.25;87.51;99079.34;10376731;28;20400;-68
2024/01/17 11:19:33;;;;;;;1999.90;999.90;;;;;;;-0.25;86.13;99076.75;10375490;28;20413;-68
2024/01/17 11:24:56;;;;;;;1999.90;999.90;;;;;;;-0.21;87.73;99065.44;10375723;28;20042;-68
2024/01/17 11:30:27;;;;;;;1999.90;999.90;;;;;;;-0.22;86.65;99059.47;10375744;28;20053;-69
2024/01/17 11:35:46;;;;;;;1999.90;999.90;;;;;;;-0.05;85.95;99048.47;10350065;28;20136;-69
2024/01/17 11:41:09;;;;;;;1999.90;999.90;;;;;;;-0.03;84.05;99040.69;10375721;28;20588;-68
2024/01/17 11:46:12;;;;;;;1999.90;999.90;;;;;;;0.12;83.92;99036.63;10374527;28;20382;-69
2024/01/17 11:51:15;;;;;;;1999.90;999.90;;;;;;;-0.09;84.40;99026.34;10374964;28;20046;-69
2024/01/17 11:56:22;;;;;;;1999.90;999.90;;;;;;;-0.06;85.60;99021.06;10374834;28;20049;-69
2024/01/17 12:01:40;;;;;;;1999.90;999.90;;;;;;;0.09;86.21;99017.00;10373478;28;20054;-69
2024/01/17 12:06:50;;;;;;;1999.90;999.90;;;;;;;0.38;85.14;98996.06;10375762;28;20053;-69
2024/01/17 12:11:53;;;;;;;1999.90;999.90;;;;;;;-0.03;85.15;98999.53;10373663;28;20069;-69
2024/01/17 12:16:55;;;;;;;1999.90;999.90;;;;;;;0.18;86.34;98977.16;10358542;28;20050;-69
2024/01/17 12:21:58;;;;;;;1999.90;999.90;;;;;;;0.04;85.84;98962.31;10373377;28;20499;-69
2024/01/17 12:27:00;;;;;;;1999.90;999.90;;;;;;;0.07;84.78;98949.34;10373290;28;20057;-69
2024/01/17 12:32:03;;;;;;;1999.90;999.90;;;;;;;0.59;85.42;98930.72;10375478;28;20046;-69
2024/01/17 12:37:06;;;;;;;1999.90;999.90;;;;;;;0.59;84.85;98916.97;10373735;28;20053;-69
2024/01/17 12:42:08;;;;;;;1999.90;999.90;;;;;;;0.69;85.36;98897.59;10374653;28;20050;-69
2024/01/17 12:47:11;;;;;;;1999.90;999.90;;;;;;;0.54;85.72;98887.13;10374655;28;20049;-69
2024/01/17 12:52:17;;;;;;;1999.90;999.90;;;;;;;0.08;83.86;98889.22;10372812;28;20445;-69
2024/01/17 12:57:21;;;;;;;1999.90;999.90;;;;;;;0.20;84.41;98874.97;10374803;28;20104;-69
2024/01/17 13:02:23;;;;;;;1999.90;999.90;;;;;;;-0.05;85.21;98868.38;10373703;28;20057;-69
2024/01/17 13:07:26;;;;;;;1999.90;999.90;;;;;;;0.52;86.99;98862.34;10372871;28;20050;-69
2024/01/17 13:12:29;;;;;;;1999.90;999.90;;;;;;;0.51;85.83;98869.25;10379905;28;20386;-69
2024/01/17 13:17:32;;;;;;;1999.90;999.90;;;;;;;0.78;86.16;98874.00;10381271;28;20049;-69
2024/01/17 13:22:34;;;;;;;1999.90;999.90;;;;;;;0.58;85.73;98874.94;10380517;28;20056;-69
2024/01/17 13:27:37;;;;;;;1999.90;999.90;;;;;;;0.85;87.00;98875.38;10381533;28;20132;-69
2024/01/17 13:32:39;;;;;;;1999.90;999.90;;;;;;;0.64;85.71;98871.22;10381175;28;20057;-69
2024/01/17 13:37:42;;;;;;;1999.90;999.90;;;;;;;0.32;86.49;98864.13;10380555;28;20485;-69
2024/01/17 13:42:45;;;;;;;1999.90;999.90;;;;;;;0.65;88.24;98857.47;10379096;28;20516;-69
2024/01/17 13:47:47;;;;;;;1999.90;999.90;;;;;;;0.42;86.59;98851.66;10380765;28;20088;-69
2024/01/17 13:52:52;;;;;;;1999.90;999.90;;;;;;;0.39;86.19;98856.09;10378848;28;20046;-70
2024/01/17 13:57:54;;;;;;;1999.90;999.90;;;;;;;0.07;86.34;98854.13;10378703;28;20058;-69
2024/01/17 14:03:00;;;;;;;1999.90;999.90;;;;;;;0.40;86.79;98848.31;10378987;28;20050;-69
2024/01/17 14:08:03;;;;;;;1999.90;999.90;;;;;;;0.21;88.14;98838.03;10379851;28;20058;-69
2024/01/17 14:13:06;;;;;;;1999.90;999.90;;;;;;;0.24;87.24;98840.47;10379838;28;20129;-69
2024/01/17 14:18:10;;;;;;;1999.90;999.90;;;;;;;0.30;88.30;98840.22;10379610;28;20053;-69
2024/01/17 14:23:14;;;;;;;1999.90;999.90;;;;;;;0.28;86.83;98844.56;10377006;28;20093;-69
2024/01/17 14:28:17;;;;;;;1999.90;999.90;;;;;;;0.27;85.69;98844.63;10379255;28;20108;-69
2024/01/17 14:33:20;;;;;;;1999.90;999.90;;;;;;;0.57;87.53;98842.38;10378346;28;20401;-69
2024/01/17 14:38:23;;;;;;;1999.90;999.90;;;;;;;0.34;86.72;98835.75;10377677;28;20133;-69
2024/01/17 14:43:25;;;;;;;1999.90;999.90;;;;;;;0.49;87.64;98840.16;10378532;28;20061;-69
2024/01/17 14:48:29;;;;;;;1999.90;999.90;;;;;;;0.68;87.73;98823.84;10377279;28;20050;-69
2024/01/17 14:53:31;;;;;;;1999.90;999.90;;;;;;;0.42;87.80;98815.63;10377083;28;20049;-70
2024/01/17 14:58:34;;;;;;;1999.90;999.90;;;;;;;0.36;89.45;98813.34;10378050;28;20129;-69
2024/01/17 15:03:36;;;;;;;1999.90;999.90;;;;;;;0.34;89.21;98810.81;10377705;28;20136;-69
2024/01/17 15:08:42;;;;;;;1999.90;999.90;;;;;;;0.28;88.75;98810.28;10377030;28;20441;-69
2024/01/17 15:13:45;;;;;;;1999.90;999.90;;;;;;;0.28;90.16;98800.81;10377689;28;20046;-69
2024/01/17 15:18:48;;;;;;;1999.90;999.90;;;;;;;0.22;89.68;98808.84;10376623;28;20413;-69
2024/01/17 15:23:51;;;;;;;1999.90;999.90;;;;;;;0.09;89.72;98795.69;10375906;28;20061;-69
2024/01/17 15:28:54;;;;;;;1999.90;999.90;;;;;;;0.15;89.24;98802.28;10376875;28;20108;-69
2024/01/17 15:33:56;;;;;;;1999.90;999.90;;;;;;;0.08;90.95;98803.47;10375879;28;20046;-69
2024/01/17 15:38:59;;;;;;;1999.90;999.90;;;;;;;0.06;91.31;98810.44;10375358;28;20069;-69
2024/01/17 15:44:02;;;;;;;1999.90;999.90;;;;;;;0.11;90.65;98806.75;10376225;28;20481;-69
2024/01/17 15:49:05;;;;;;;1999.90;999.90;;;;;;;-0.10;91.49;98810.28;10376213;28;20054;-69
2024/01/17 15:54:07;;;;;;;1999.90;999.90;;;;;;;0.08;91.85;98814.59;10374885;28;20070;-69
2024/01/17 15:59:10;;;;;;;1999.90;999.90;;;;;;;0.04;92.25;98807.13;10375842;28;20049;-69
2024/01/17 16:04:12;;;;;;;1999.90;999.90;;;;;;;-0.04;93.37;98813.44;10375653;28;20050;-69
2024/01/17 16:09:15;;;;;;;1999.90;999.90;;;;;;;-0.02;93.47;98810.78;10375182;28;20057;-69
2024/01/17 16:14:17;;;;;;;1999.90;999.90;;;;;;;0.26;92.52;98817.25;10374305;28;20046;-69
2024/01/17 16:19:19;;;;;;;1999.90;999.90;;;;;;;-0.13;92.18;98810.47;10375254;28;20049;-69
2024/01/17 16:24:22;;;;;;;1999.90;999.90;;;;;;;0.04;92.06;98807.13;10374500;28;20504;-69
2024/01/17 16:29:25;;;;;;;1999.90;999.90;;;;;;;-0.08;92.73;98824.78;10374891;28;20062;-69
2024/01/17 16:34:27;;;;;;;1999.90;999.90;;;;;;;-0.01;92.84;98833.88;10374868;28;20081;-69
2024/01/17 16:39:30;;;;;;;1999.90;999.90;;;;;;;-0.14;92.84;98834.50;10374190;28;20528;-69
2024/01/17 16:44:32;;;;;;;1999.90;999.90;;;;;;;0.08;93.07;98847.22;10374454;28;20112;-69
2024/01/17 16:49:34;;;;;;;1999.90;999.90;;;;;;;-0.08;94.17;98834.25;10382401;28;20497;-69
2024/01/17 16:54:37;;;;;;;1999.90;999.90;;;;;;;-0.11;93.79;98836.94;10381058;28;20046;-69
2024/01/17 16:59:39;;;;;;;1999.90;999.90;;;;;;;-0.04;94.56;98841.72;10381539;28;20125;-69
2024/01/17 17:04:42;;;;;;;1999.90;999.90;;;;;;;-0.08;93.77;98829.91;10381725;28;20056;-69
2024/01/17 17:09:44;;;;;;;1999.90;999.90;;;;;;;-0.03;95.32;98837.44;10381849;28;20069;-69
2024/01/17 17:14:47;;;;;;;1999.90;999.90;;;;;;;-0.15;94.52;98837.97;10397479;28;20046;-69
2024/01/17 17:19:49;;;;;;;1999.90;999.90;;;;;;;-0.25;95.20;98838.41;10379995;28;20056;-70
2024/01/17 17:24:52;;;;;;;1999.90;999.90;;;;;;;-0.42;95.96;98831.44;10381620;28;20049;-70
2024/01/17 17:29:54;;;;;;;1999.90;999.90;;;;;;;-0.29;95.83;98839.41;10380828;28;20054;-70
2024/01/17 17:34:56;;;;;;;1999.90;999.90;;;;;;;-0.17;95.68;98847.50;10381342;28;20042;-70
2024/01/17 17:39:59;;;;;;;1999.90;999.90;;;;;;;-0.37;96.29;98856.91;10380536;28;20132;-70
2024/01/17 17:45:02;;;;;;;1999.90;999.90;;;;;;;-0.26;96.84;98866.75;10381399;28;20045;-70
2024/01/17 17:50:10;;;;;;;1999.90;999.90;;;;;;;-0.32;95.72;98867.00;10380742;28;20111;-70
2024/01/17 17:55:13;;;;;;;1999.90;999.90;;;;;;;-0.28;96.29;98871.97;10379608;28;20046;-70
2024/01/17 18:00:16;;;;;;;1999.90;999.90;;;;;;;-0.17;96.63;98876.63;10379877;28;20054;-70
2024/01/17 18:05:19;;;;;;;1999.90;999.90;;;;;;;-0.24;96.57;98880.38;10378464;28;20054;-70
2024/01/17 18:10:22;;;;;;;1999.90;999.90;;;;;;;-0.26;96.55;98889.91;10346257;28;20417;-70
2024/01/17 18:15:24;;;;;;;1999.90;999.90;;;;;;;-0.25;96.33;98889.00;10379203;28;20416;-70
2024/01/17 18:20:27;;;;;;;1999.90;999.90;;;;;;;-0.15;97.91;98899.69;10378945;28;20452;-70
2024/01/17 18:25:29;;;;;;;1999.90;999.90;;;;;;;-0.21;96.43;98893.94;10379294;28;20085;-70
2024/01/17 18:30:34;;;;;;;1999.90;999.90;;;;;;;-0.17;97.87;98893.78;10378652;28;20156;-70
2024/01/17 18:35:37;;;;;;;1999.90;999.90;;;;;;;-0.28;97.39;98896.84;10378983;28;20046;-70
2024/01/17 18:40:40;;;;;;;1999.90;999.90;;;;;;;-0.28;97.77;98905.38;10377662;28;20111;-70
2024/01/17 18:45:42;;;;;;;1999.90;999.90;;;;;;;-0.53;99.98;98905.59;10376793;28;20500;-70
2024/01/17 18:50:45;;;;;;;1999.90;999.90;;;;;;;-0.28;99.50;98902.81;10378382;28;20068;-70
2024/01/17 18:55:48;;;;;;;1999.90;999.90;;;;;;;-0.42;99.28;98921.41;10378239;28;20125;-70
2024/01/17 19:00:51;;;;;;;1999.90;999.90;;;;;;;-0.41;99.56;98932.53;10376771;28;20134;-70
2024/01/17 19:05:53;;;;;;;1999.90;999.90;;;;;;;-0.43;99.31;98926.63;10376583;28;20053;-70
2024/01/17 19:10:56;;;;;;;1999.90;999.90;;;;;;;-0.52;100.00;98939.84;10377168;28;20089;-70
2024/01/17 19:15:58;;;;;;;1999.90;999.90;;;;;;;-0.46;100.00;98939.59;10375654;28;20128;-70
2024/01/17 19:21:02;;;;;;;1999.90;999.90;;;;;;;-0.45;100.00;98936.97;10376636;28;20054;-70
2024/01/17 19:26:07;;;;;;;1999.90;999.90;;;;;;;-0.53;100.00;98951.88;10375845;28;20053;-70
2024/01/17 19:31:10;;;;;;;1999.90;999.90;;;;;;;-0.57;100.00;98969.16;10360029;28;20053;-70
2024/01/17 19:36:13;;;;;;;1999.90;999.90;;;;;;;-0.68;99.81;98976.47;10375616;28;20138;-70
2024/01/17 19:41:15;;;;;;;1999.90;999.90;;;;;;;-0.56;97.89;98968.25;10374727;28;20463;-70
2024/01/17 19:46:20;;;;;;;1999.90;999.90;;;;;;;-0.65;98.64;98970.38;10376206;28;20050;-70
2024/01/17 19:51:23;;;;;;;1999.90;999.90;;;;;;;-0.79;98.93;98987.19;10376177;28;20054;-67
2024/01/17 19:56:27;;;;;;;1999.90;999.90;;;;;;;-0.75;97.82;99000.75;10375928;28;20050;-67
2024/01/17 20:01:31;;;;;;;1999.90;999.90;;;;;;;-0.86;98.66;99003.72;10375743;28;20049;-67
2024/01/17 20:06:34;;;;;;;1999.90;999.90;;;;;;;-0.72;99.25;99007.47;10375700;28;20060;-67
2024/01/17 20:11:41;;;;;;;1999.90;999.90;;;;;;;-0.72;98.63;99015.19;10374110;28;20412;-67
2024/01/17 20:16:44;;;;;;;1999.90;999.90;;;;;;;-1.00;99.44;99018.84;10375342;28;20056;-67
2024/01/17 20:21:47;;;;;;;1999.90;999.90;;;;;;;-0.83;99.95;99021.59;10374425;28;20137;-67
2024/01/17 20:26:49;;;;;;;1999.90;999.90;;;;;;;-0.85;99.99;99032.84;10374952;28;20050;-67
2024/01/17 20:31:54;;;;;;;1999.90;999.90;;;;;;;-0.48;100.00;99045.06;10373182;28;20073;-67
2024/01/17 20:37:00;;;;;;;1999.90;999.90;;;;;;;-0.96;99.60;99054.66;10374960;28;20054;-67
2024/01/17 20:42:04;;;;;;;1999.90;999.90;;;;;;;-0.64;98.45;99042.28;10374133;28;20060;-67
2024/01/17 20:47:06;;;;;;;1999.90;999.90;;;;;;;-0.70;99.83;99055.38;10374575;28;20053;-67
2024/01/17 20:52:09;;;;;;;1999.90;999.90;;;;;;;-0.58;99.21;99057.44;10374574;28;20048;-67
2024/01/17 20:57:11;;;;;;;1999.90;999.90;;;;;;;-0.87;99.36;99062.91;10373854;28;20479;-67
2024/01/17 21:02:15;;;;;;;1999.90;999.90;;;;;;;-0.44;98.50;99066.34;10373049;28;20485;-67
2024/01/17 21:07:17;;;;;;;1999.90;999.90;;;;;;;-0.69;97.97;99076.75;10374336;28;20050;-67
2024/01/17 21:12:20;;;;;;;1999.90;999.90;;;;;;;-0.65;98.58;99074.03;10374567;28;20069;-67
2024/01/17 21:17:25;;;;;;;1999.90;999.90;;;;;;;-0.54;100.00;99089.00;10373516;28;20485;-67
2024/01/17 21:22:27;;;;;;;1999.90;999.90;;;;;;;-0.72;100.00;99098.28;10374085;28;20053;-67
2024/01/17 21:27:31;;;;;;;1999.90;999.90;;;;;;;-0.47;100.00;99108.47;10373995;28;20046;-67
2024/01/17 21:32:34;;;;;;;1999.90;999.90;;;;;;;-0.30;100.00;99101.78;10375015;28;20045;-67
2024/01/17 21:37:36;;;;;;;1999.90;999.90;;;;;;;-0.41;100.00;99115.09;10381353;28;20045;-67
2024/01/17 21:42:39;;;;;;;1999.90;999.90;;;;;;;-0.33;100.00;99120.78;10381002;28;20046;-67
2024/01/17 21:47:41;;;;;;;1999.90;999.90;;;;;;;-0.62;99.86;99115.03;10380916;28;20049;-67
2024/01/17 21:52:45;;;;;;;1999.90;999.90;;;;;;;-0.42;100.00;99124.56;10380741;28;20050;-67
2024/01/17 21:57:47;;;;;;;1999.90;999.90;;;;;;;-0.53;98.52;99129.25;10380499;28;20054;-67
2024/01/17 22:02:49;;;;;;;1999.90;999.90;;;;;;;-0.76;97.37;99125.84;10378543;28;20050;-67
2024/01/17 22:07:52;;;;;;;1999.90;999.90;;;;;;;-0.43;99.25;99132.31;10378802;28;20108;-69